Terminal Aerodrome Forecast
Issued by NWS Twin Cities, MN

Home | Current Version | Previous Version | Text Only | Print | Product List | Glossary Off
Versions: 1 2 3 4 5 6 7 8 9 10 11 12

000
FTUS43 KMPX 161128
TAFEAU
TAF
KEAU 161128Z 1612/1712 33007KT P6SM SCT018 BKN050
     FM161700 30006KT P6SM FEW018 BKN100
     FM170000 25004KT P6SM SCT100
     FM171000 22004KT P6SM SCT250=

USA.gov is the U.S. government's official web portal to all federal, state and local government web resources and services.